createdAt,value
2023-01-17T00:02:40.879Z,12.70
2023-01-17T00:05:44.455Z,11.90
2023-01-17T00:08:54.972Z,11.95
2023-01-17T00:11:40.141Z,11.60
2023-01-17T00:14:26.624Z,11.30
2023-01-17T00:17:11.561Z,11.48
2023-01-17T00:20:15.329Z,12.20
2023-01-17T00:23:19.014Z,12.23
2023-01-17T00:26:09.303Z,11.85
2023-01-17T00:28:54.202Z,11.75
2023-01-17T00:31:38.617Z,12.07
2023-01-17T00:34:22.970Z,11.70
2023-01-17T00:37:07.607Z,12.77
2023-01-17T00:39:52.443Z,12.02
2023-01-17T00:42:37.517Z,13.68
2023-01-17T00:45:41.306Z,12.68
2023-01-17T00:48:44.217Z,11.90
2023-01-17T00:51:50.487Z,12.35
2023-01-17T00:54:53.952Z,11.88
2023-01-17T00:57:57.432Z,12.63
2023-01-17T01:01:00.873Z,12.00
2023-01-17T01:04:04.164Z,12.15
2023-01-17T01:07:07.350Z,11.88
2023-01-17T01:10:10.794Z,11.10
2023-01-17T01:13:14.275Z,11.70
2023-01-17T01:16:19.082Z,12.68
2023-01-17T01:19:23.589Z,11.10
2023-01-17T01:22:26.944Z,11.40
2023-01-17T01:25:30.484Z,11.70
2023-01-17T01:28:34.257Z,13.00
2023-01-17T01:31:37.667Z,11.40
2023-01-17T01:34:22.981Z,12.70
2023-01-17T01:37:07.855Z,11.57
2023-01-17T01:39:52.894Z,12.02
2023-01-17T01:42:47.194Z,11.68
2023-01-17T01:45:32.391Z,11.07
2023-01-17T01:48:17.189Z,12.60
2023-01-17T01:51:16.919Z,12.10
2023-01-17T01:54:13.278Z,11.32
2023-01-17T01:57:02.240Z,11.45
2023-01-17T01:59:55.601Z,12.75
2023-01-17T02:02:42.476Z,12.00
2023-01-17T02:05:27.849Z,11.38
2023-01-17T02:08:16.109Z,13.02
2023-01-17T02:11:01.640Z,11.52
2023-01-17T02:13:46.329Z,11.60
2023-01-17T02:17:00.366Z,11.93
2023-01-17T02:20:07.972Z,11.70
2023-01-17T02:23:30.651Z,11.10
2023-01-17T02:26:24.819Z,12.25
2023-01-17T02:29:18.566Z,12.88
2023-01-17T02:32:21.567Z,11.90
2023-01-17T02:35:21.849Z,12.00
2023-01-17T02:38:22.406Z,12.02
2023-01-17T02:41:15.537Z,12.40
2023-01-17T02:44:01.904Z,12.05
2023-01-17T02:46:52.466Z,12.02
2023-01-17T02:49:37.401Z,11.50
2023-01-17T02:52:36.697Z,12.07
2023-01-17T02:55:53.578Z,11.98
2023-01-17T02:58:52.756Z,12.05
2023-01-17T03:01:59.822Z,11.95
2023-01-17T03:04:55.113Z,12.98
2023-01-17T03:07:43.531Z,12.50
2023-01-17T03:10:31.755Z,11.88
2023-01-17T03:13:16.522Z,12.77
2023-01-17T03:16:06.417Z,12.32
2023-01-17T03:18:53.143Z,12.73
2023-01-17T03:21:38.163Z,12.35
2023-01-17T03:24:23.052Z,12.68
2023-01-17T03:27:08.055Z,11.48
2023-01-17T03:29:52.982Z,12.35
2023-01-17T03:32:37.990Z,13.13
2023-01-17T03:35:22.893Z,12.48
2023-01-17T03:38:07.754Z,13.15
2023-01-17T03:40:53.328Z,12.15
2023-01-17T03:43:38.335Z,12.93
2023-01-17T03:46:25.254Z,12.60
2023-01-17T03:49:09.957Z,13.80
2023-01-17T03:51:54.753Z,14.35
2023-01-17T03:57:24.019Z,13.45
2023-01-17T04:02:53.886Z,13.57
2023-01-17T04:05:39.002Z,14.40
2023-01-17T04:08:24.046Z,13.88
2023-01-17T04:11:09.350Z,13.73
2023-01-17T04:13:54.719Z,13.45
2023-01-17T04:16:39.628Z,13.68
2023-01-17T04:22:08.697Z,13.02
2023-01-17T04:24:53.947Z,13.48
2023-01-17T04:30:23.551Z,13.18
2023-01-17T04:33:08.236Z,13.63
2023-01-17T04:35:53.558Z,14.15
2023-01-17T04:38:38.396Z,13.77
2023-01-17T04:41:23.231Z,14.02
2023-01-17T04:44:08.037Z,14.05
2023-01-17T04:46:52.495Z,13.43
2023-01-17T04:49:37.539Z,15.27
2023-01-17T04:52:22.490Z,15.30
2023-01-17T04:55:08.039Z,13.40
2023-01-17T04:57:52.922Z,13.68
2023-01-17T05:00:38.273Z,14.45
2023-01-17T05:03:23.011Z,13.90
2023-01-17T05:06:07.925Z,15.13
2023-01-17T05:08:52.904Z,13.68
2023-01-17T05:11:38.198Z,16.73
2023-01-17T05:14:26.376Z,15.40
2023-01-17T05:17:11.372Z,14.00
2023-01-17T05:19:56.291Z,15.35
2023-01-17T05:22:41.192Z,14.55
2023-01-17T05:25:29.152Z,14.55
2023-01-17T05:28:13.977Z,15.18
2023-01-17T05:30:58.970Z,14.15
2023-01-17T05:33:44.027Z,13.68
2023-01-17T05:36:29.345Z,14.35
2023-01-17T05:39:14.762Z,14.57
2023-01-17T05:41:59.466Z,14.52
2023-01-17T05:44:44.336Z,15.80
2023-01-17T05:47:29.248Z,14.30
2023-01-17T05:50:17.461Z,14.55
2023-01-17T05:53:06.498Z,14.48
2023-01-17T05:55:51.423Z,14.48
2023-01-17T05:58:35.911Z,14.85
2023-01-17T06:01:20.891Z,14.90
2023-01-17T06:04:05.575Z,13.38
2023-01-17T06:06:50.463Z,15.00
2023-01-17T06:09:35.501Z,14.60
2023-01-17T06:12:22.040Z,15.55
2023-01-17T06:15:07.702Z,15.10
2023-01-17T06:17:52.320Z,15.02
2023-01-17T06:20:38.881Z,15.70
2023-01-17T06:23:24.504Z,16.10
2023-01-17T06:26:09.951Z,14.80
2023-01-17T06:28:55.331Z,14.50
2023-01-17T06:31:40.136Z,17.67
2023-01-17T06:34:24.887Z,16.00
2023-01-17T06:37:09.617Z,15.00
2023-01-17T06:39:54.390Z,15.10
2023-01-17T06:42:38.949Z,15.43
2023-01-17T06:45:23.688Z,14.05
2023-01-17T06:48:08.359Z,15.25
2023-01-17T06:50:53.246Z,14.07
2023-01-17T06:53:38.078Z,14.30
2023-01-17T06:56:22.887Z,15.00
2023-01-17T06:59:07.922Z,14.57
2023-01-17T07:01:52.551Z,14.55
2023-01-17T07:04:37.709Z,14.60
2023-01-17T07:07:22.807Z,14.43
2023-01-17T07:10:08.407Z,13.95
2023-01-17T07:12:59.317Z,14.98
2023-01-17T07:15:44.010Z,14.82
2023-01-17T07:18:29.426Z,15.63
2023-01-17T07:21:15.285Z,15.50
2023-01-17T07:24:00.509Z,14.73
2023-01-17T07:26:50.145Z,14.90
2023-01-17T07:29:34.730Z,15.60
2023-01-17T07:32:19.379Z,16.88
2023-01-17T07:35:05.691Z,16.85
2023-01-17T07:37:50.814Z,16.35
2023-01-17T07:40:41.855Z,15.65
2023-01-17T07:46:14.605Z,14.88
2023-01-17T07:48:59.112Z,14.50
2023-01-17T07:51:46.323Z,14.88
2023-01-17T07:54:31.050Z,15.18
2023-01-17T07:57:16.134Z,15.50
2023-01-17T08:00:01.634Z,14.82
2023-01-17T08:02:46.357Z,16.30
2023-01-17T08:05:31.389Z,18.67
2023-01-17T08:08:17.857Z,16.45
2023-01-17T08:11:02.910Z,17.33
2023-01-17T08:13:48.285Z,15.80
2023-01-17T08:16:32.969Z,17.30
2023-01-17T08:19:18.629Z,19.00
2023-01-17T08:22:03.695Z,16.48
2023-01-17T08:24:48.593Z,15.63
2023-01-17T08:27:35.086Z,15.25
2023-01-17T08:30:20.457Z,16.27
2023-01-17T08:33:05.504Z,13.20
2023-01-17T08:35:54.323Z,14.02
2023-01-17T08:38:39.319Z,14.20
2023-01-17T08:41:25.987Z,14.00
2023-01-17T08:44:10.828Z,15.27
2023-01-17T08:46:55.793Z,13.85
2023-01-17T08:49:40.844Z,13.25
2023-01-17T08:52:29.283Z,13.52
2023-01-17T08:55:14.485Z,14.15
2023-01-17T08:57:59.260Z,13.75
2023-01-17T09:00:44.485Z,15.30
2023-01-17T09:03:30.397Z,16.02
2023-01-17T09:06:15.718Z,14.98
2023-01-17T09:09:01.300Z,14.02
2023-01-17T09:11:46.214Z,13.73
2023-01-17T09:14:32.351Z,14.48
2023-01-17T09:17:18.685Z,13.70
2023-01-17T09:20:03.863Z,14.57
2023-01-17T09:22:49.097Z,13.63
2023-01-17T09:25:34.102Z,13.90
2023-01-17T09:28:20.162Z,14.40
2023-01-17T09:31:07.542Z,14.07
2023-01-17T09:33:53.247Z,13.63
2023-01-17T09:36:38.158Z,13.55
2023-01-17T09:42:25.744Z,13.40
2023-01-17T09:45:17.932Z,13.23
2023-01-17T09:48:08.178Z,12.77
2023-01-17T09:50:59.354Z,13.30
2023-01-17T09:53:43.903Z,14.13
2023-01-17T09:56:41.128Z,13.68
2023-01-17T09:59:33.116Z,14.45
2023-01-17T10:02:39.678Z,14.30
2023-01-17T10:05:24.271Z,13.15
2023-01-17T10:08:38.063Z,14.15
2023-01-17T10:11:41.041Z,15.23
2023-01-17T10:14:44.198Z,18.65
2023-01-17T10:17:56.200Z,15.63
2023-01-17T10:21:10.358Z,14.43
2023-01-17T10:24:17.884Z,13.10
2023-01-17T10:27:12.687Z,13.65
2023-01-17T10:29:57.966Z,13.70
2023-01-17T10:32:48.258Z,13.38
2023-01-17T10:35:36.303Z,13.27
2023-01-17T10:38:30.295Z,14.50
2023-01-17T10:41:25.108Z,15.13
2023-01-17T10:44:28.776Z,14.30
2023-01-17T10:47:22.298Z,13.48
2023-01-17T10:50:12.650Z,15.15
2023-01-17T10:53:46.703Z,15.40
2023-01-17T10:56:33.780Z,14.95
2023-01-17T10:59:31.778Z,14.50
2023-01-17T11:02:25.386Z,16.27
2023-01-17T11:05:19.683Z,14.23
2023-01-17T11:08:13.259Z,15.02
2023-01-17T11:11:02.726Z,15.35
2023-01-17T11:13:49.227Z,15.27
2023-01-17T11:16:35.233Z,15.05
2023-01-17T11:19:31.701Z,14.63
2023-01-17T11:22:17.543Z,14.40
2023-01-17T11:25:03.876Z,15.55
2023-01-17T11:28:01.244Z,14.65
2023-01-17T11:31:00.920Z,13.30
2023-01-17T11:33:53.196Z,14.48
2023-01-17T11:36:38.061Z,14.65
2023-01-17T11:39:26.867Z,14.25
2023-01-17T11:42:35.786Z,14.77
2023-01-17T11:45:26.317Z,14.43
2023-01-17T11:48:15.581Z,15.95
2023-01-17T11:51:02.216Z,14.15
2023-01-17T11:53:47.892Z,15.02
2023-01-17T11:56:36.024Z,14.27
2023-01-17T11:59:26.813Z,16.02
2023-01-17T12:02:43.318Z,16.20
2023-01-17T12:06:06.096Z,15.57
2023-01-17T12:09:39.568Z,17.10
2023-01-17T12:12:42.457Z,17.60
2023-01-17T12:15:30.633Z,17.55
2023-01-17T12:18:44.705Z,17.65
2023-01-17T12:21:59.626Z,17.88
2023-01-17T12:24:49.565Z,18.85
2023-01-17T12:27:59.236Z,19.65
2023-01-17T12:30:46.875Z,18.58
2023-01-17T12:33:51.793Z,21.55
2023-01-17T12:36:46.911Z,21.30
2023-01-17T12:39:39.200Z,20.70
2023-01-17T12:42:32.305Z,20.60
2023-01-17T12:45:31.568Z,20.85
2023-01-17T12:48:19.285Z,20.48
2023-01-17T12:51:03.910Z,20.70
2023-01-17T12:54:07.773Z,20.95
2023-01-17T12:56:58.410Z,21.13
2023-01-17T13:00:11.643Z,21.00
2023-01-17T13:03:26.896Z,21.70
2023-01-17T13:06:24.682Z,21.50
2023-01-17T13:09:16.884Z,22.13
2023-01-17T13:12:06.708Z,21.60
2023-01-17T13:14:59.020Z,21.77
2023-01-17T13:18:14.973Z,21.45
2023-01-17T13:23:55.923Z,20.15
2023-01-17T13:26:53.259Z,19.60
2023-01-17T13:30:01.047Z,20.13
2023-01-17T13:33:07.646Z,20.88
2023-01-17T13:36:29.579Z,19.73
2023-01-17T13:39:16.979Z,19.95
2023-01-17T13:42:33.780Z,21.65
2023-01-17T13:45:26.919Z,21.50
2023-01-17T13:48:11.633Z,21.60
2023-01-17T13:51:09.963Z,24.75
2023-01-17T13:53:55.534Z,24.08
2023-01-17T13:56:40.375Z,22.52
2023-01-17T13:59:27.186Z,22.58
2023-01-17T14:02:37.545Z,23.45
2023-01-17T14:05:31.199Z,23.02
2023-01-17T14:08:20.195Z,22.75
2023-01-17T14:11:09.948Z,23.88
2023-01-17T14:13:55.012Z,22.88
2023-01-17T14:16:39.951Z,25.42
2023-01-17T14:19:26.092Z,24.02
2023-01-17T14:22:20.130Z,24.33
2023-01-17T14:25:40.316Z,23.90
2023-01-17T14:28:30.914Z,25.55
2023-01-17T14:31:16.956Z,24.88
2023-01-17T14:34:21.405Z,25.13
2023-01-17T14:37:16.874Z,25.20
2023-01-17T14:40:02.243Z,23.25
2023-01-17T14:42:53.218Z,24.73
2023-01-17T14:45:39.000Z,24.15
2023-01-17T14:48:24.567Z,23.95
2023-01-17T14:51:17.580Z,24.60
2023-01-17T14:54:06.703Z,25.27
2023-01-17T14:56:51.786Z,23.75
2023-01-17T14:59:36.588Z,24.60
2023-01-17T15:02:21.796Z,24.95
2023-01-17T15:05:09.376Z,24.38
2023-01-17T15:07:57.006Z,25.10
2023-01-17T15:10:55.972Z,26.40
2023-01-17T15:13:48.800Z,25.02
2023-01-17T15:16:37.369Z,26.33
2023-01-17T15:19:22.694Z,24.73
2023-01-17T15:22:07.880Z,23.35
2023-01-17T15:24:53.771Z,22.73
2023-01-17T15:27:38.896Z,24.02
2023-01-17T15:30:24.695Z,25.15
2023-01-17T15:33:16.734Z,26.35
2023-01-17T15:36:08.228Z,26.73
2023-01-17T15:38:59.556Z,26.45
2023-01-17T15:44:49.481Z,29.02
2023-01-17T15:47:38.588Z,25.67
2023-01-17T15:50:30.531Z,30.10
2023-01-17T15:53:33.713Z,29.23
2023-01-17T15:56:36.593Z,31.90
2023-01-17T15:59:43.908Z,27.20
2023-01-17T16:02:42.961Z,26.13
2023-01-17T16:05:32.478Z,26.42
2023-01-17T16:08:31.760Z,25.27
2023-01-17T16:11:18.343Z,24.85
2023-01-17T16:14:06.886Z,24.98
2023-01-17T16:16:52.900Z,25.42
2023-01-17T16:19:37.382Z,27.25
2023-01-17T16:22:22.550Z,30.77
2023-01-17T16:25:16.260Z,30.42
2023-01-17T16:28:02.726Z,29.92
2023-01-17T16:30:48.282Z,31.42
2023-01-17T16:33:32.915Z,28.77
2023-01-17T16:36:20.142Z,32.38
2023-01-17T16:39:05.648Z,32.47
2023-01-17T16:41:50.518Z,32.67
2023-01-17T16:44:36.758Z,28.38
2023-01-17T16:47:21.964Z,26.30
2023-01-17T16:50:07.474Z,25.52
2023-01-17T16:52:54.038Z,25.98
2023-01-17T16:55:41.307Z,24.42
2023-01-17T16:58:26.285Z,24.23
2023-01-17T17:01:16.665Z,25.33
2023-01-17T17:04:01.197Z,25.38
2023-01-17T17:06:46.036Z,26.63
2023-01-17T17:09:30.829Z,29.65
2023-01-17T17:12:15.784Z,31.20
2023-01-17T17:15:00.850Z,34.95
2023-01-17T17:17:47.446Z,48.05
2023-01-17T17:20:32.278Z,52.25
2023-01-17T17:23:16.805Z,41.25
2023-01-17T17:26:01.985Z,39.58
2023-01-17T17:28:51.010Z,41.20
2023-01-17T17:31:37.430Z,39.15
2023-01-17T17:34:22.891Z,38.17
2023-01-17T17:37:07.776Z,47.75
2023-01-17T17:39:52.263Z,56.30
2023-01-17T17:42:36.852Z,52.10
2023-01-17T17:45:22.134Z,44.30
2023-01-17T17:48:06.692Z,36.60
2023-01-17T17:50:59.652Z,44.92
2023-01-17T17:53:45.047Z,44.75
2023-01-17T17:56:31.038Z,42.20
2023-01-17T17:59:19.611Z,37.28
2023-01-17T18:02:06.088Z,35.55
2023-01-17T18:04:51.048Z,41.33
2023-01-17T18:07:36.328Z,43.28
2023-01-17T18:13:05.393Z,38.42
2023-01-17T18:16:09.301Z,36.88
2023-01-17T18:18:55.982Z,34.67
2023-01-17T18:21:40.932Z,31.58
2023-01-17T18:24:26.925Z,27.90
2023-01-17T18:27:11.872Z,28.65
2023-01-17T18:29:57.773Z,27.83
2023-01-17T18:32:42.531Z,27.42
2023-01-17T18:35:27.326Z,25.48
2023-01-17T18:41:02.226Z,22.30
2023-01-17T18:43:47.340Z,23.05
2023-01-17T18:46:33.204Z,25.45
2023-01-17T18:49:19.074Z,25.38
2023-01-17T18:52:07.309Z,26.23
2023-01-17T18:54:51.977Z,25.30
2023-01-17T18:57:36.915Z,26.02
2023-01-17T19:03:07.349Z,25.23
2023-01-17T19:05:52.424Z,26.05
2023-01-17T19:08:38.007Z,25.65
2023-01-17T19:11:24.000Z,25.73
2023-01-17T19:14:10.268Z,24.35
2023-01-17T19:16:56.635Z,25.02
2023-01-17T19:19:41.609Z,24.92
2023-01-17T19:22:26.355Z,26.08
2023-01-17T19:25:11.403Z,28.85
2023-01-17T19:30:42.677Z,24.60
2023-01-17T19:33:27.681Z,26.80
2023-01-17T19:39:05.633Z,25.35
2023-01-17T19:41:50.998Z,26.42
2023-01-17T19:44:36.251Z,27.30
2023-01-17T19:47:20.876Z,25.63
2023-01-17T19:50:07.884Z,25.30
2023-01-17T19:52:53.227Z,23.38
2023-01-17T19:55:39.045Z,24.45
2023-01-17T19:58:24.151Z,27.45
2023-01-17T20:04:00.727Z,22.88
2023-01-17T20:06:46.268Z,21.98
2023-01-17T20:09:31.084Z,22.05
2023-01-17T20:12:15.962Z,21.85
2023-01-17T20:15:00.809Z,20.40
2023-01-17T20:17:46.396Z,20.23
2023-01-17T20:23:18.844Z,21.02
2023-01-17T20:26:04.755Z,20.33
2023-01-17T20:28:50.875Z,20.40
2023-01-17T20:31:39.575Z,21.33
2023-01-17T20:34:25.145Z,22.42
2023-01-17T20:37:10.017Z,22.42
2023-01-17T20:39:55.117Z,21.83
2023-01-17T20:45:24.723Z,21.25
2023-01-17T20:48:09.377Z,21.27
2023-01-17T20:50:54.833Z,20.23
2023-01-17T20:53:41.194Z,21.05
2023-01-17T20:56:26.426Z,17.90
2023-01-17T20:59:13.917Z,19.48
2023-01-17T21:01:58.875Z,19.92
2023-01-17T21:04:44.718Z,19.02
2023-01-17T21:07:30.077Z,18.67
2023-01-17T21:10:15.287Z,18.85
2023-01-17T21:13:00.329Z,18.33
2023-01-17T21:18:32.012Z,17.83
2023-01-17T21:21:21.200Z,20.05
2023-01-17T21:24:06.032Z,20.10
2023-01-17T21:26:51.843Z,20.75
2023-01-17T21:29:36.878Z,21.60
2023-01-17T21:32:21.449Z,20.40
2023-01-17T21:35:07.055Z,19.45
2023-01-17T21:37:52.010Z,19.00
2023-01-17T21:40:36.887Z,19.15
2023-01-17T21:43:21.368Z,19.70
2023-01-17T21:46:06.755Z,20.70
2023-01-17T21:51:54.574Z,18.02
2023-01-17T21:54:57.722Z,19.08
2023-01-17T21:58:01.288Z,19.63
2023-01-17T22:00:45.968Z,18.92
2023-01-17T22:03:31.099Z,19.88
2023-01-17T22:09:01.165Z,17.20
2023-01-17T22:14:30.401Z,18.75
2023-01-17T22:17:14.844Z,19.02
2023-01-17T22:19:59.343Z,20.88
2023-01-17T22:22:44.334Z,21.73
2023-01-17T22:25:30.001Z,21.33
2023-01-17T22:28:15.001Z,20.83
2023-01-17T22:31:24.190Z,21.65
2023-01-17T22:34:08.688Z,19.83
2023-01-17T22:39:39.065Z,19.80
2023-01-17T22:45:09.700Z,18.55
2023-01-17T22:47:54.493Z,19.65
2023-01-17T22:50:39.751Z,19.88
2023-01-17T22:56:12.002Z,18.58
2023-01-17T22:58:59.978Z,17.90
2023-01-17T23:01:44.968Z,20.25
2023-01-17T23:04:29.625Z,20.00
2023-01-17T23:09:59.785Z,20.02
2023-01-17T23:12:45.822Z,21.08
2023-01-17T23:15:48.895Z,20.42
2023-01-17T23:18:52.230Z,21.27
2023-01-17T23:21:56.084Z,20.75
2023-01-17T23:24:43.207Z,21.15
2023-01-17T23:28:05.559Z,20.73
2023-01-17T23:30:50.352Z,21.17
2023-01-17T23:33:35.491Z,22.02
2023-01-17T23:39:05.491Z,21.92
2023-01-17T23:42:08.906Z,25.52
2023-01-17T23:44:53.792Z,35.30
2023-01-17T23:47:38.754Z,45.97
2023-01-17T23:50:23.396Z,45.08
2023-01-17T23:53:09.710Z,38.50
2023-01-17T23:55:56.228Z,28.02
2023-01-17T23:58:41.035Z,24.60
